Time;durP1;ratioP1;P1;durP2;ratioP2;P2;SDS_P1;SDS_P2;PMS_P1;PMS_P2;Temp;Humidity;BMP_temperature;BMP_pressure;BME280_temperature;BME280_humidity;BME280_pressure;Samples;Min_cycle;Max_cycle;Signal;HPM_P1;HPM_P2
2022/06/29 00:02:13;;;;;;;13.20;11.17;;;21.60;56.30;;;;;;5014548;28;20185;-69
2022/06/29 00:04:39;;;;;;;14.90;11.40;;;21.60;56.70;;;;;;5014412;28;20180;-70
2022/06/29 00:07:05;;;;;;;14.63;11.03;;;21.60;57.30;;;;;;5014424;28;20794;-70
2022/06/29 00:09:30;;;;;;;11.97;10.90;;;21.70;56.00;;;;;;5015113;28;20696;-70
2022/06/29 00:11:56;;;;;;;15.60;11.37;;;21.60;54.50;;;;;;5013996;28;20216;-70
2022/06/29 00:14:21;;;;;;;14.37;10.87;;;21.60;55.80;;;;;;5014389;28;20212;-70
2022/06/29 00:16:47;;;;;;;13.37;10.40;;;21.60;55.80;;;;;;5012894;28;20266;-70
2022/06/29 00:19:13;;;;;;;14.30;10.33;;;21.90;52.40;;;;;;5014420;28;20284;-70
2022/06/29 00:21:38;;;;;;;27.00;10.60;;;21.90;53.30;;;;;;5014440;28;20633;-70
2022/06/29 00:24:04;;;;;;;15.73;10.20;;;21.80;54.50;;;;;;5014431;28;20178;-69
2022/06/29 00:26:30;;;;;;;17.37;10.87;;;21.70;54.20;;;;;;5010944;28;20231;-70
2022/06/29 00:28:57;;;;;;;19.20;10.57;;;21.90;53.60;;;;;;5014324;28;20179;-70
2022/06/29 00:31:22;;;;;;;13.53;10.77;;;21.90;52.80;;;;;;5014077;28;20406;-69
2022/06/29 00:33:48;;;;;;;14.07;10.40;;;22.00;52.00;;;;;;5014536;28;20412;-70
2022/06/29 00:36:13;;;;;;;16.30;11.80;;;21.80;53.60;;;;;;5012278;28;20202;-69
2022/06/29 00:38:39;;;;;;;29.67;15.03;;;21.70;53.00;;;;;;5014104;28;20189;-70
2022/06/29 00:41:04;;;;;;;24.77;13.43;;;21.60;53.30;;;;;;5013755;28;20185;-70
2022/06/29 00:43:42;;;;;;;27.93;15.60;;;21.40;54.90;;;;;;5013376;28;20176;-70
2022/06/29 00:46:08;;;;;;;43.97;19.20;;;21.40;55.30;;;;;;5013000;28;20250;-70
2022/06/29 00:48:34;;;;;;;43.73;20.50;;;21.30;55.70;;;;;;5013514;28;20482;-70
2022/06/29 00:51:02;;;;;;;43.70;18.77;;;21.40;55.70;;;;;;5013505;28;20458;-70
2022/06/29 00:53:35;;;;;;;28.53;15.97;;;21.40;56.20;;;;;;5013229;28;20482;-70
2022/06/29 00:56:02;;;;;;;20.20;13.50;;;21.40;55.80;;;;;;5012483;28;20449;-70
2022/06/29 00:58:28;;;;;;;20.13;12.80;;;21.40;55.60;;;;;;5013190;28;20491;-69
2022/06/29 01:01:02;;;;;;;17.53;11.60;;;21.40;56.40;;;;;;5013006;28;20425;-70
2022/06/29 01:03:27;;;;;;;14.17;11.20;;;21.40;55.40;;;;;;5012355;28;20467;-70
2022/06/29 01:05:54;;;;;;;20.00;11.30;;;21.50;55.10;;;;;;5013420;28;20477;-70
2022/06/29 01:08:19;;;;;;;16.07;11.90;;;21.60;55.30;;;;;;5012756;28;20225;-69
2022/06/29 01:10:45;;;;;;;14.90;11.50;;;21.40;54.90;;;;;;5013309;28;20823;-70
2022/06/29 01:13:11;;;;;;;13.80;11.50;;;21.40;55.40;;;;;;5013661;28;20213;-70
2022/06/29 01:15:37;;;;;;;15.43;11.63;;;21.40;55.00;;;;;;5013488;28;20193;-70
2022/06/29 01:18:03;;;;;;;20.23;11.97;;;21.40;55.50;;;;;;5010855;28;20435;-70
2022/06/29 01:20:28;;;;;;;17.27;11.87;;;21.30;56.10;;;;;;5013603;28;20695;-70
2022/06/29 01:22:54;;;;;;;14.13;11.47;;;21.30;55.10;;;;;;5013198;28;20186;-70
2022/06/29 01:25:20;;;;;;;14.70;11.50;;;21.40;55.80;;;;;;5013110;28;20427;-70
2022/06/29 01:27:46;;;;;;;17.13;11.53;;;21.50;55.30;;;;;;5009959;28;20223;-70
2022/06/29 01:30:12;;;;;;;12.90;11.37;;;21.50;54.90;;;;;;5013061;28;20412;-69
2022/06/29 01:32:40;;;;;;;13.77;11.40;;;21.50;55.50;;;;;;5011865;28;20242;-69
2022/06/29 01:35:11;;;;;;;12.90;11.30;;;21.30;55.80;;;;;;5013194;28;20412;-70
2022/06/29 01:37:41;;;;;;;19.10;11.53;;;21.40;54.60;;;;;;5012212;28;20471;-70
2022/06/29 01:40:08;;;;;;;17.90;11.60;;;21.40;55.10;;;;;;5012936;28;20418;-70
2022/06/29 01:42:34;;;;;;;16.07;11.37;;;21.30;55.20;;;;;;5012003;28;20447;-70
2022/06/29 01:44:59;;;;;;;14.80;10.50;;;21.00;57.60;;;;;;5011869;28;20475;-70
2022/06/29 01:47:25;;;;;;;12.70;10.70;;;21.10;57.20;;;;;;5011825;28;20750;-70
2022/06/29 01:49:51;;;;;;;13.63;11.27;;;21.10;55.90;;;;;;5011984;28;20548;-69
2022/06/29 01:52:16;;;;;;;13.60;11.50;;;21.20;56.40;;;;;;5012774;28;20181;-70
2022/06/29 01:54:42;;;;;;;14.43;11.20;;;21.10;55.20;;;;;;5011914;28;20434;-69
2022/06/29 01:57:08;;;;;;;13.77;11.83;;;21.10;56.10;;;;;;5012804;28;20635;-70
2022/06/29 01:59:33;;;;;;;15.67;12.03;;;21.10;56.30;;;;;;5012282;28;20191;-70
2022/06/29 02:01:59;;;;;;;13.57;11.33;;;21.20;55.80;;;;;;5012295;28;20186;-70
2022/06/29 02:04:25;;;;;;;20.30;12.50;;;21.40;54.90;;;;;;5012683;28;20184;-69
2022/06/29 02:06:50;;;;;;;16.10;11.50;;;21.20;55.60;;;;;;5011169;28;20216;-70
2022/06/29 02:09:16;;;;;;;13.90;11.23;;;21.20;55.40;;;;;;5012698;28;20177;-70
2022/06/29 02:11:42;;;;;;;16.50;13.40;;;21.20;55.40;;;;;;5011996;28;20609;-70
2022/06/29 02:14:08;;;;;;;22.90;15.80;;;21.10;56.40;;;;;;5012516;28;20186;-70
2022/06/29 02:16:33;;;;;;;19.93;15.77;;;21.10;56.20;;;;;;5012529;28;20190;-70
2022/06/29 02:18:59;;;;;;;18.10;15.00;;;21.10;56.70;;;;;;5012588;28;20510;-70
2022/06/29 02:21:25;;;;;;;19.50;14.40;;;20.90;56.70;;;;;;5011582;28;20178;-69
2022/06/29 02:23:50;;;;;;;21.20;14.70;;;20.60;58.40;;;;;;5011763;28;20562;-70
2022/06/29 02:26:16;;;;;;;14.73;13.00;;;20.80;57.70;;;;;;5010724;28;20238;-70
2022/06/29 02:28:42;;;;;;;15.07;12.43;;;20.80;57.30;;;;;;5011376;28;20191;-70
2022/06/29 02:36:35;;;;;;;16.57;13.03;;;20.70;58.50;;;;;;5012379;28;20443;-69
2022/06/29 02:39:01;;;;;;;17.07;12.53;;;21.10;55.70;;;;;;5009894;28;20439;-70
2022/06/29 02:41:27;;;;;;;16.70;12.83;;;21.00;56.90;;;;;;5012026;28;20211;-70
2022/06/29 02:43:53;;;;;;;20.53;13.37;;;20.90;56.10;;;;;;5011626;28;20853;-70
2022/06/29 02:46:19;;;;;;;22.03;12.37;;;21.10;55.50;;;;;;5011706;28;20486;-70
2022/06/29 02:48:45;;;;;;;15.47;12.40;;;20.90;56.90;;;;;;5011135;28;20177;-70
2022/06/29 02:51:11;;;;;;;32.90;13.70;;;20.80;56.40;;;;;;5010665;28;20181;-70
2022/06/29 02:53:36;;;;;;;18.37;12.73;;;20.90;56.20;;;;;;5011567;28;20420;-70
2022/06/29 02:56:03;;;;;;;16.00;13.70;;;20.80;55.90;;;;;;5011301;28;20297;-69
2022/06/29 02:58:28;;;;;;;20.33;13.37;;;20.80;56.80;;;;;;5011714;28;20189;-70
2022/06/29 03:00:54;;;;;;;20.93;13.83;;;20.80;56.00;;;;;;5009133;28;20438;-70
2022/06/29 03:03:20;;;;;;;25.80;12.73;;;21.00;55.50;;;;;;5011654;28;20281;-70
2022/06/29 03:05:45;;;;;;;23.43;14.07;;;21.00;55.40;;;;;;5011318;28;20232;-70
2022/06/29 03:08:11;;;;;;;18.00;13.33;;;20.90;56.10;;;;;;5011384;28;20218;-70
2022/06/29 03:10:37;;;;;;;18.30;12.83;;;20.80;55.40;;;;;;5010826;28;20665;-70
2022/06/29 03:13:02;;;;;;;15.60;13.00;;;20.70;55.80;;;;;;5011357;28;20303;-70
2022/06/29 03:15:28;;;;;;;16.20;12.37;;;20.70;56.40;;;;;;5010818;28;20195;-69
2022/06/29 03:17:54;;;;;;;15.17;11.83;;;20.70;57.80;;;;;;5010787;28;20188;-70
2022/06/29 03:20:20;;;;;;;13.43;11.50;;;20.90;55.10;;;;;;5011551;28;20725;-70
2022/06/29 03:22:46;;;;;;;17.83;13.03;;;21.10;53.90;;;;;;5008853;28;20814;-70
2022/06/29 03:25:13;;;;;;;20.83;13.07;;;21.00;55.30;;;;;;5011529;28;20453;-70
2022/06/29 03:27:39;;;;;;;18.27;12.70;;;21.10;54.70;;;;;;5011022;28;20207;-69
2022/06/29 03:30:05;;;;;;;21.60;12.17;;;21.00;55.20;;;;;;5011246;28;20413;-70
2022/06/29 03:32:31;;;;;;;15.57;12.97;;;20.90;55.70;;;;;;5009174;28;20205;-69
2022/06/29 03:34:57;;;;;;;18.43;13.00;;;20.80;55.30;;;;;;5011059;28;20872;-70
2022/06/29 03:37:22;;;;;;;16.43;13.77;;;20.70;55.60;;;;;;5011092;28;20195;-70
2022/06/29 03:39:48;;;;;;;17.40;13.27;;;20.70;56.20;;;;;;5011488;28;20455;-70
2022/06/29 03:42:14;;;;;;;15.77;13.53;;;20.70;56.20;;;;;;4992605;28;20186;-70
2022/06/29 03:44:40;;;;;;;22.90;13.90;;;20.80;55.90;;;;;;5011053;28;20186;-70
2022/06/29 03:47:07;;;;;;;19.03;14.50;;;20.80;57.30;;;;;;5010989;28;20453;-70
2022/06/29 03:49:35;;;;;;;18.50;14.27;;;20.80;55.50;;;;;;5010703;28;20200;-70
2022/06/29 03:52:03;;;;;;;16.60;13.70;;;21.00;54.30;;;;;;5009938;28;21005;-70
2022/06/29 03:54:29;;;;;;;18.77;13.27;;;20.90;55.70;;;;;;5011121;28;20477;-69
2022/06/29 03:56:55;;;;;;;25.20;14.10;;;20.70;55.90;;;;;;5011210;28;20430;-70
2022/06/29 03:59:21;;;;;;;16.97;14.30;;;20.70;57.20;;;;;;5010839;28;20679;-70
2022/06/29 04:01:47;;;;;;;18.67;14.20;;;20.70;57.30;;;;;;5008861;28;20438;-70
2022/06/29 04:04:13;;;;;;;21.40;13.17;;;20.80;57.10;;;;;;5010279;28;20181;-70
2022/06/29 04:06:39;;;;;;;25.43;13.93;;;20.60;58.20;;;;;;5010422;28;20209;-70
2022/06/29 04:09:05;;;;;;;16.33;13.77;;;20.60;57.40;;;;;;5011006;28;20419;-70
2022/06/29 04:11:49;;;;;;;16.23;13.53;;;20.60;57.80;;;;;;5010757;28;20757;-70
2022/06/29 04:14:15;;;;;;;17.30;13.87;;;20.60;57.60;;;;;;5009807;28;20178;-70
2022/06/29 04:16:41;;;;;;;17.73;13.40;;;20.70;56.80;;;;;;5011013;28;20441;-70
2022/06/29 04:19:07;;;;;;;20.07;13.60;;;20.70;57.50;;;;;;5010851;28;20411;-70
2022/06/29 04:21:32;;;;;;;20.30;14.30;;;20.70;58.60;;;;;;5010004;28;20676;-70
2022/06/29 04:23:58;;;;;;;15.57;13.40;;;20.70;58.50;;;;;;5007023;28;20439;-69
2022/06/29 04:26:24;;;;;;;16.30;13.80;;;20.70;58.50;;;;;;5002380;28;20412;-69
2022/06/29 04:28:49;;;;;;;14.90;12.73;;;20.60;58.40;;;;;;4997212;28;20189;-70
2022/06/29 04:31:15;;;;;;;15.03;12.43;;;20.70;58.40;;;;;;5003293;28;20182;-70
2022/06/29 04:33:41;;;;;;;16.30;13.77;;;20.70;58.50;;;;;;5012856;28;20200;-70
2022/06/29 04:36:07;;;;;;;23.23;13.83;;;20.80;58.10;;;;;;5012997;28;20689;-69
2022/06/29 04:38:32;;;;;;;18.00;12.97;;;20.80;57.50;;;;;;5014061;28;20192;-69
2022/06/29 04:40:59;;;;;;;15.43;13.17;;;20.70;56.90;;;;;;5005366;28;20987;-70
2022/06/29 04:43:27;;;;;;;18.90;13.37;;;20.80;56.70;;;;;;5006381;28;20184;-70
2022/06/29 04:48:37;;;;;;;16.43;13.37;;;20.80;59.40;;;;;;5007593;28;20494;-70
2022/06/29 04:51:03;;;;;;;18.93;14.07;;;20.80;58.60;;;;;;5011336;28;20450;-70
2022/06/29 04:53:28;;;;;;;15.20;12.60;;;20.90;57.40;;;;;;5013387;28;20197;-70
2022/06/29 04:55:54;;;;;;;19.03;13.50;;;20.90;57.00;;;;;;5010840;28;20212;-70
2022/06/29 04:58:19;;;;;;;15.77;13.90;;;21.00;56.90;;;;;;5013441;28;20215;-70
2022/06/29 05:00:45;;;;;;;19.73;13.43;;;21.00;57.40;;;;;;5013188;28;20202;-70
2022/06/29 05:03:11;;;;;;;16.30;13.37;;;20.90;57.50;;;;;;5013673;28;20184;-70
2022/06/29 05:05:36;;;;;;;15.20;13.20;;;20.80;58.60;;;;;;5012956;28;20679;-70
2022/06/29 05:08:02;;;;;;;17.77;13.20;;;20.80;58.60;;;;;;5014397;28;20204;-70
2022/06/29 05:10:28;;;;;;;17.47;12.70;;;20.70;58.90;;;;;;5014750;28;20256;-70
2022/06/29 05:12:54;;;;;;;17.37;13.30;;;20.90;58.70;;;;;;5013309;28;20200;-68
2022/06/29 05:15:19;;;;;;;17.20;13.13;;;21.00;58.20;;;;;;5013371;28;20192;-67
2022/06/29 05:17:46;;;;;;;15.83;13.10;;;21.00;58.80;;;;;;5012891;28;20189;-68
2022/06/29 05:20:12;;;;;;;16.67;13.40;;;21.10;58.60;;;;;;5013418;28;20192;-68
2022/06/29 05:22:38;;;;;;;19.53;14.40;;;21.10;58.90;;;;;;5012273;28;20445;-68
2022/06/29 05:25:04;;;;;;;17.43;14.50;;;21.30;59.10;;;;;;5013350;28;20235;-67
2022/06/29 05:27:30;;;;;;;15.40;13.60;;;21.30;57.70;;;;;;5010668;28;20221;-68
2022/06/29 05:29:55;;;;;;;20.60;13.53;;;21.30;57.60;;;;;;5011882;28;20449;-69
2022/06/29 05:32:21;;;;;;;16.37;12.87;;;21.20;57.00;;;;;;5009866;28;20181;-68
2022/06/29 05:34:47;;;;;;;18.67;12.10;;;21.30;57.90;;;;;;5011862;28;20302;-68
2022/06/29 05:37:12;;;;;;;17.70;14.13;;;21.20;56.00;;;;;;5009153;28;20233;-68
2022/06/29 05:39:38;;;;;;;20.73;14.13;;;21.00;58.80;;;;;;5011469;28;20186;-67
2022/06/29 05:42:04;;;;;;;17.57;14.23;;;21.10;58.80;;;;;;5010725;28;20209;-68
2022/06/29 05:44:30;;;;;;;21.67;14.23;;;21.50;57.60;;;;;;5012138;28;20796;-67
2022/06/29 05:46:56;;;;;;;19.13;14.30;;;21.50;56.90;;;;;;5012943;28;20551;-69
2022/06/29 05:49:21;;;;;;;22.80;14.37;;;21.50;56.10;;;;;;5012126;28;20224;-68
2022/06/29 05:51:47;;;;;;;21.17;16.37;;;21.50;55.00;;;;;;5012701;28;20173;-68
2022/06/29 05:54:12;;;;;;;27.63;22.07;;;21.00;57.70;;;;;;5011167;28;20275;-68
2022/06/29 05:56:38;;;;;;;31.00;24.50;;;21.00;59.10;;;;;;5011931;28;20592;-68
2022/06/29 05:59:03;;;;;;;31.20;22.93;;;21.20;58.60;;;;;;5012367;28;20181;-68
2022/06/29 06:01:29;;;;;;;27.63;20.63;;;21.50;57.10;;;;;;5010556;28;20204;-68
2022/06/29 06:03:55;;;;;;;31.77;21.93;;;21.60;57.10;;;;;;5012611;28;20549;-68
2022/06/29 06:06:20;;;;;;;30.90;23.70;;;21.60;56.60;;;;;;5012385;28;20213;-68
2022/06/29 06:08:46;;;;;;;28.20;23.63;;;21.60;55.50;;;;;;5012818;28;20798;-68
2022/06/29 06:11:11;;;;;;;25.53;20.50;;;21.60;56.50;;;;;;4993685;28;20191;-68
2022/06/29 06:13:37;;;;;;;39.50;27.53;;;21.90;54.90;;;;;;5012476;28;20241;-68
2022/06/29 06:16:04;;;;;;;45.30;34.73;;;21.80;54.30;;;;;;5012007;28;20231;-68
2022/06/29 06:18:29;;;;;;;44.40;30.80;;;21.70;55.70;;;;;;5011554;28;20424;-68
2022/06/29 06:20:55;;;;;;;38.87;28.20;;;21.00;58.80;;;;;;5008556;28;20458;-67
2022/06/29 06:23:21;;;;;;;44.23;31.10;;;20.80;59.70;;;;;;5010208;28;20184;-67
2022/06/29 06:25:46;;;;;;;47.23;32.17;;;20.40;63.50;;;;;;5008360;28;20213;-67
2022/06/29 06:28:12;;;;;;;37.77;30.23;;;20.40;64.80;;;;;;5004647;28;20212;-67
2022/06/29 06:30:38;;;;;;;36.30;28.20;;;20.60;63.60;;;;;;5009557;28;20653;-67
2022/06/29 06:33:04;;;;;;;39.23;28.80;;;21.00;61.80;;;;;;5008817;28;20433;-68
2022/06/29 06:35:30;;;;;;;32.60;25.67;;;22.00;56.80;;;;;;5009658;28;20545;-68
2022/06/29 06:37:56;;;;;;;34.10;24.30;;;22.00;57.50;;;;;;5008332;28;20184;-68
2022/06/29 06:43:06;;;;;;;24.60;17.30;;;22.40;55.50;;;;;;5005421;28;20667;-68
2022/06/29 06:45:31;;;;;;;25.00;16.60;;;22.80;51.60;;;;;;5011339;28;20422;-69
2022/06/29 06:47:57;;;;;;;28.80;15.40;;;22.80;52.50;;;;;;5011131;28;20214;-68
2022/06/29 06:50:23;;;;;;;17.80;12.33;;;23.00;51.40;;;;;;5011960;28;20179;-69
2022/06/29 06:52:49;;;;;;;15.73;11.70;;;23.10;51.70;;;;;;5011174;28;20267;-71
2022/06/29 06:55:15;;;;;;;13.80;11.03;;;;;;;;;;5010884;28;20189;-71
2022/06/29 06:57:41;;;;;;;15.77;10.60;;;23.00;50.30;;;;;;5010284;28;20189;-69
2022/06/29 07:00:09;;;;;;;14.63;11.33;;;23.30;50.40;;;;;;4992201;28;20455;-69
2022/06/29 07:02:35;;;;;;;14.53;10.67;;;23.50;48.70;;;;;;5011002;28;20432;-69
2022/06/29 07:05:01;;;;;;;13.90;10.80;;;23.70;47.90;;;;;;5011050;28;20446;-69
2022/06/29 07:07:27;;;;;;;12.70;10.10;;;23.20;49.90;;;;;;5011633;28;20254;-70
2022/06/29 07:09:52;;;;;;;12.87;10.50;;;23.40;50.50;;;;;;5010830;28;20883;-70
2022/06/29 07:12:18;;;;;;;14.20;11.30;;;23.50;49.00;;;;;;5009204;28;20596;-70
2022/06/29 07:14:43;;;;;;;14.17;9.70;;;23.30;49.10;;;;;;5011180;28;20729;-69
2022/06/29 07:17:09;;;;;;;14.97;11.30;;;22.70;52.40;;;;;;5007217;28;20302;-69
2022/06/29 07:19:35;;;;;;;14.50;10.50;;;22.10;55.20;;;;;;5006996;28;20215;-70
2022/06/29 07:22:01;;;;;;;12.83;10.40;;;22.60;54.10;;;;;;5009678;28;20190;-71
2022/06/29 07:24:26;;;;;;;12.83;10.60;;;22.80;53.00;;;;;;5008361;28;20439;-70
2022/06/29 07:26:52;;;;;;;12.57;10.77;;;22.70;54.10;;;;;;5005645;28;20322;-69
2022/06/29 07:29:18;;;;;;;12.47;10.17;;;22.60;54.20;;;;;;5007382;28;20199;-70
2022/06/29 07:31:43;;;;;;;12.30;10.27;;;22.50;55.00;;;;;;5004091;28;20184;-70
2022/06/29 07:34:09;;;;;;;15.17;10.73;;;23.20;52.20;;;;;;5009425;28;20279;-70
2022/06/29 07:36:34;;;;;;;14.20;10.00;;;23.80;48.40;;;;;;5007030;28;20729;-70
2022/06/29 07:39:00;;;;;;;12.30;9.60;;;24.10;47.60;;;;;;4991907;28;20183;-70
2022/06/29 07:41:26;;;;;;;13.53;9.77;;;24.30;46.90;;;;;;5008576;28;20179;-70
2022/06/29 07:43:51;;;;;;;16.57;10.53;;;24.70;47.10;;;;;;5009675;28;20208;-70
2022/06/29 07:46:17;;;;;;;13.40;8.67;;;24.90;46.20;;;;;;5009374;28;20216;-71
2022/06/29 07:48:43;;;;;;;10.10;9.20;;;24.80;46.10;;;;;;5010001;28;20234;-71
2022/06/29 07:51:09;;;;;;;13.47;9.37;;;24.90;46.20;;;;;;5009150;28;20177;-71
2022/06/29 07:53:34;;;;;;;13.20;9.20;;;24.70;46.10;;;;;;5008747;28;20652;-70
2022/06/29 07:56:00;;;;;;;13.70;9.53;;;24.60;46.00;;;;;;5007804;28;20208;-70
2022/06/29 07:58:26;;;;;;;13.30;9.70;;;24.70;46.10;;;;;;5009320;28;20526;-70
2022/06/29 08:00:53;;;;;;;11.30;9.70;;;25.00;45.90;;;;;;5005537;28;20187;-71
2022/06/29 08:03:19;;;;;;;12.10;9.40;;;25.20;44.90;;;;;;5002506;28;20243;-70
2022/06/29 08:05:45;;;;;;;10.17;8.77;;;25.40;43.10;;;;;;5013677;28;20849;-70
2022/06/29 08:08:11;;;;;;;17.00;9.33;;;25.40;43.20;;;;;;5012351;28;20754;-72
2022/06/29 08:10:37;;;;;;;11.43;8.40;;;25.20;43.60;;;;;;5014441;28;20807;-70
2022/06/29 08:13:03;;;;;;;12.70;9.00;;;24.80;44.40;;;;;;5012712;28;20435;-70
2022/06/29 08:15:29;;;;;;;11.90;9.37;;;25.00;43.40;;;;;;5012386;28;20641;-71
2022/06/29 08:17:55;;;;;;;16.43;8.97;;;25.10;44.30;;;;;;5014195;28;20415;-70
2022/06/29 08:20:21;;;;;;;9.17;7.83;;;25.10;43.20;;;;;;5012345;28;20492;-71
2022/06/29 08:22:48;;;;;;;9.93;9.30;;;24.30;45.70;;;;;;5010838;28;20443;-70
2022/06/29 08:25:14;;;;;;;13.33;8.50;;;24.60;44.70;;;;;;5011067;28;20939;-70
2022/06/29 08:27:40;;;;;;;12.63;9.70;;;24.60;45.20;;;;;;5011951;28;20502;-70
2022/06/29 08:30:08;;;;;;;15.03;9.10;;;24.60;44.60;;;;;;5012163;28;20442;-70
2022/06/29 08:32:34;;;;;;;11.07;8.80;;;24.60;45.90;;;;;;5012835;28;20440;-70
2022/06/29 08:35:01;;;;;;;11.30;8.47;;;25.10;44.60;;;;;;5010909;28;20942;-70
2022/06/29 08:37:27;;;;;;;10.50;8.73;;;25.60;42.80;;;;;;5011361;28;20471;-70
2022/06/29 08:39:53;;;;;;;10.10;8.50;;;24.80;43.00;;;;;;5009628;28;20800;-69
2022/06/29 08:42:23;;;;;;;14.83;8.50;;;24.10;45.60;;;;;;5007219;28;20433;-70
2022/06/29 08:44:50;;;;;;;20.73;8.17;;;24.00;47.10;;;;;;5009827;28;20651;-70
2022/06/29 08:47:16;;;;;;;10.87;7.90;;;24.00;46.50;;;;;;5013970;28;20471;-70
2022/06/29 08:49:44;;;;;;;10.67;8.20;;;24.70;44.70;;;;;;5012628;28;21023;-70
2022/06/29 08:52:11;;;;;;;10.67;8.70;;;24.90;44.60;;;;;;5011813;28;20522;-70
2022/06/29 08:54:41;;;;;;;12.57;8.97;;;25.10;42.20;;;;;;5012737;28;20412;-70
2022/06/29 08:57:08;;;;;;;12.10;8.90;;;25.60;40.40;;;;;;5012442;28;20521;-69
2022/06/29 08:59:34;;;;;;;10.70;8.60;;;25.90;39.60;;;;;;5011027;28;20447;-70
2022/06/29 09:02:00;;;;;;;12.13;8.60;;;25.50;40.00;;;;;;5013307;28;20424;-69
2022/06/29 09:04:26;;;;;;;8.60;8.10;;;24.90;43.20;;;;;;5011993;28;20803;-70
2022/06/29 09:06:56;;;;;;;11.67;7.90;;;24.70;42.80;;;;;;5010723;28;20475;-70
2022/06/29 09:09:22;;;;;;;12.20;9.00;;;24.50;44.10;;;;;;5006268;28;20184;-72
2022/06/29 09:11:50;;;;;;;14.33;8.67;;;24.30;43.30;;;;;;5010003;28;20935;-70
2022/06/29 09:14:21;;;;;;;11.57;9.50;;;27.80;46.60;;;;;;5009897;28;20440;-69
2022/06/29 09:16:59;;;;;;;15.10;9.00;;;24.40;41.60;;;;;;5018241;28;20538;-69
2022/06/29 09:19:34;;;;;;;12.43;8.70;;;25.00;40.30;;;;;;5007531;28;21061;-69
2022/06/29 09:22:00;;;;;;;10.37;7.37;;;25.90;37.30;;;;;;5022306;28;20763;-70
2022/06/29 09:24:35;;;;;;;8.97;7.47;;;26.40;34.80;;;;;;5013542;28;20415;-71
2022/06/29 09:27:05;;;;;;;10.43;8.20;;;26.70;36.50;;;;;;5011778;28;20212;-70
2022/06/29 09:29:33;;;;;;;10.10;7.40;;;26.80;34.90;;;;;;5013617;28;20420;-70
2022/06/29 09:32:08;;;;;;;17.73;8.20;;;26.50;34.40;;;;;;5013319;28;20416;-70
2022/06/29 09:35:12;;;;;;;9.00;7.47;;;25.90;38.40;;;;;;5020203;28;20415;-70
2022/06/29 09:37:38;;;;;;;11.70;8.17;;;26.20;37.10;;;;;;4952286;28;20485;-69
2022/06/29 09:40:04;;;;;;;13.90;8.07;;;25.40;37.10;;;;;;4952360;29;20806;-69
2022/06/29 09:42:30;;;;;;;9.17;7.80;;;25.30;39.70;;;;;;4951586;29;20525;-69
2022/06/29 09:44:56;;;;;;;9.70;7.53;;;26.20;39.10;;;;;;4951354;29;21937;-70
2022/06/29 09:47:22;;;;;;;12.60;8.07;;;26.00;37.90;;;;;;4951230;28;20226;-70
2022/06/29 09:49:59;;;;;;;12.43;7.40;;;26.40;37.10;;;;;;4955752;28;20310;-71
2022/06/29 09:52:26;;;;;;;11.40;7.37;;;26.90;37.10;;;;;;4954616;28;20422;-70
2022/06/29 09:54:56;;;;;;;9.30;6.90;;;27.40;37.30;;;;;;4952316;29;20419;-70
2022/06/29 09:57:27;;;;;;;12.33;7.20;;;27.10;35.10;;;;;;4951838;29;20509;-70
2022/06/29 10:02:59;;;;;;;9.30;6.67;;;26.20;35.30;;;;;;4952136;29;20486;-70
2022/06/29 10:05:28;;;;;;;13.03;6.53;;;26.40;36.00;;;;;;4954273;28;20427;-70
2022/06/29 10:07:55;;;;;;;9.70;6.87;;;26.40;35.30;;;;;;4951298;28;21001;-70
2022/06/29 10:10:23;;;;;;;10.97;7.23;;;26.40;37.20;;;;;;4945079;29;20537;-70
2022/06/29 10:16:33;;;;;;;11.17;6.87;;;27.30;33.60;;;;;;5007482;28;20457;-70
2022/06/29 10:19:27;;;;;;;8.33;7.37;;;26.80;33.80;;;;;;5007231;28;20439;-70
2022/06/29 10:21:56;;;;;;;12.97;7.87;;;27.20;33.60;;;;;;5008303;28;20439;-70
2022/06/29 10:24:21;;;;;;;10.40;7.20;;;27.70;32.50;;;;;;5006248;28;20477;-71
2022/06/29 10:26:48;;;;;;;10.70;7.73;;;28.00;31.50;;;;;;5010220;28;20549;-70
2022/06/29 10:29:22;;;;;;;10.20;7.47;;;26.60;34.80;;;;;;4994057;28;20181;-71
2022/06/29 10:31:54;;;;;;;9.40;7.27;;;25.90;38.60;;;;;;5009282;28;20846;-70
2022/06/29 10:34:31;;;;;;;24.00;7.60;;;25.70;38.40;;;;;;5000685;28;20451;-70
2022/06/29 10:37:02;;;;;;;9.13;7.40;;;26.40;37.80;;;;;;5010214;28;20505;-71
2022/06/29 10:39:43;;;;;;;10.83;7.13;;;26.80;36.00;;;;;;5008810;28;21258;-71
2022/06/29 10:45:13;;;;;;;10.67;6.83;;;27.40;34.10;;;;;;5009228;28;20854;-70
2022/06/29 10:47:58;;;;;;;38.30;7.23;;;27.90;32.70;;;;;;5011872;28;20455;-70
2022/06/29 10:50:28;;;;;;;11.53;7.00;;;26.60;35.30;;;;;;5011626;28;20448;-70
2022/06/29 10:52:56;;;;;;;19.93;7.40;;;27.00;34.00;;;;;;5011824;28;20410;-70
2022/06/29 10:55:24;;;;;;;8.90;6.37;;;27.50;36.30;;;;;;5011822;28;20426;-70
2022/06/29 10:57:49;;;;;;;12.10;6.27;;;28.10;34.40;;;;;;5011848;28;20412;-71
2022/06/29 11:00:22;;;;;;;7.33;6.23;;;28.60;30.30;;;;;;5011830;28;20759;-71
2022/06/29 11:02:48;;;;;;;8.33;5.90;;;28.50;29.80;;;;;;5011400;28;20186;-71
2022/06/29 11:05:13;;;;;;;10.53;6.70;;;28.10;30.50;;;;;;5007828;28;20425;-73
2022/06/29 11:12:01;;;;;;;8.70;6.20;;;27.00;33.90;;;;;;4991960;28;20224;-70
2022/06/29 11:13:31;;;;;;;8.07;5.93;;;27.60;33.10;;;;;;4991839;28;20413;-71
2022/06/29 11:15:59;;;;;;;8.90;5.77;;;27.60;31.70;;;;;;4998418;28;20442;-71
2022/06/29 11:18:29;;;;;;;11.60;6.27;;;28.20;30.70;;;;;;5011325;28;20427;-70
2022/06/29 11:21:02;;;;;;;7.60;6.17;;;28.00;32.40;;;;;;5011258;28;20992;-70
2022/06/29 11:23:29;;;;;;;7.60;6.67;;;27.60;31.10;;;;;;5011501;28;20418;-71
2022/06/29 11:25:55;;;;;;;9.50;6.20;;;27.80;31.70;;;;;;5011380;28;20451;-70
2022/06/29 11:28:26;;;;;;;7.17;6.17;;;28.00;31.80;;;;;;5011051;28;20555;-70
2022/06/29 11:30:58;;;;;;;9.33;6.53;;;28.80;30.30;;;;;;5011307;28;20462;-71
2022/06/29 11:33:27;;;;;;;8.40;6.50;;;28.90;32.10;;;;;;5010191;28;20436;-71
2022/06/29 11:35:54;;;;;;;11.40;6.70;;;29.20;32.30;;;;;;5006752;28;21005;-71
2022/06/29 11:38:20;;;;;;;10.43;6.37;;;28.80;29.50;;;;;;4991315;28;20428;-72
2022/06/29 11:40:49;;;;;;;18.00;6.60;;;28.10;31.50;;;;;;5009197;28;20451;-70
2022/06/29 11:43:16;;;;;;;8.07;6.37;;;28.70;30.90;;;;;;5012250;28;20181;-70
2022/06/29 11:45:49;;;;;;;12.43;6.20;;;28.50;30.10;;;;;;5013731;28;20470;-72
2022/06/29 11:48:16;;;;;;;11.07;5.80;;;28.50;31.00;;;;;;5014427;28;20460;-71
2022/06/29 11:50:57;;;;;;;10.50;6.47;;;29.20;29.40;;;;;;5014948;28;20415;-71
2022/06/29 11:53:46;;;;;;;10.37;6.10;;;30.80;26.20;;;;;;5015011;28;20396;-71
2022/06/29 11:56:22;;;;;;;10.20;5.97;;;31.00;26.50;;;;;;5014222;28;20490;-71
2022/06/29 11:58:52;;;;;;;8.13;6.23;;;30.70;25.90;;;;;;5012125;28;20439;-71
2022/06/29 12:01:23;;;;;;;10.90;6.37;;;29.80;26.50;;;;;;5013388;28;20498;-70
2022/06/29 12:03:52;;;;;;;9.10;6.23;;;28.40;29.70;;;;;;5014286;28;20935;-70
2022/06/29 12:06:19;;;;;;;14.03;7.03;;;27.30;32.70;;;;;;5013154;28;20455;-70
2022/06/29 12:08:46;;;;;;;10.33;7.40;;;27.20;32.80;;;;;;5014663;28;20456;-70
2022/06/29 12:11:12;;;;;;;10.17;6.50;;;27.00;34.10;;;;;;5014512;28;20419;-70
2022/06/29 12:13:37;;;;;;;11.57;6.47;;;26.90;33.60;;;;;;5014183;28;20863;-70
2022/06/29 12:16:03;;;;;;;11.00;7.00;;;26.20;34.70;;;;;;5013518;28;20455;-70
2022/06/29 12:18:30;;;;;;;15.40;7.20;;;26.10;35.30;;;;;;5012742;28;20189;-70
2022/06/29 12:20:55;;;;;;;9.43;7.17;;;26.60;35.10;;;;;;5013689;28;20184;-70
2022/06/29 12:23:21;;;;;;;12.03;7.13;;;26.80;34.90;;;;;;5014506;28;20927;-71
2022/06/29 12:25:46;;;;;;;14.70;7.50;;;26.90;34.10;;;;;;5013234;28;20697;-70
2022/06/29 12:28:12;;;;;;;9.17;6.90;;;27.60;31.60;;;;;;5013937;28;20241;-70
2022/06/29 12:30:38;;;;;;;11.27;6.50;;;28.30;33.90;;;;;;5013204;28;20192;-71
2022/06/29 12:33:06;;;;;;;9.47;6.67;;;29.00;30.20;;;;;;5013075;28;20652;-71
2022/06/29 12:35:31;;;;;;;9.67;6.47;;;30.00;30.00;;;;;;5010363;28;20184;-71
2022/06/29 12:37:57;;;;;;;9.07;6.37;;;30.00;26.30;;;;;;5006878;28;20416;-72
2022/06/29 12:40:24;;;;;;;13.03;6.47;;;28.80;29.00;;;;;;5011025;28;20184;-70
2022/06/29 12:42:51;;;;;;;9.47;6.83;;;28.10;30.10;;;;;;4994554;28;20645;-70
2022/06/29 12:45:17;;;;;;;9.43;6.80;;;27.50;31.40;;;;;;5002535;28;20435;-70
2022/06/29 12:47:42;;;;;;;10.83;6.90;;;27.00;34.10;;;;;;5012716;28;20834;-70
2022/06/29 12:50:08;;;;;;;14.87;7.00;;;27.30;33.00;;;;;;5015214;28;20180;-71
2022/06/29 12:52:33;;;;;;;10.33;7.30;;;28.40;35.10;;;;;;5014057;28;20209;-71
2022/06/29 12:54:59;;;;;;;12.03;7.23;;;28.80;32.00;;;;;;5020457;28;20240;-70
2022/06/29 12:57:25;;;;;;;9.43;6.83;;;28.50;31.80;;;;;;5013478;28;20205;-70